LIRALIRN

Guest
Details From LIRA - Ciampino
To LIRN - Naples Capodichino
Flight Number -
Tags Generated
Created
Modified
Stats Distance 94 nm / 175 km
Max Altitude 0 ft / 0 m
Waypoints 2
Social Downloads 4
Likes 0
Share VATSIM

Download

Looking for another format? Having issues loading an existing format? Contact us
Advertisement - Login to hide

Notes

Generated

Route

LIRA LIRN

ID Type Via Altitude Latitude Longitude Leg Dist Tot Dist Heading (true) Name
O LIRA APT - 0 ft / 0 m 41.80806˚ 12.58883˚ - 0 nm - -
O LIRN APT - 0 ft / 0 m 40.87979˚ 14.27754˚ 94 nm 94 nm 126° / 127° -

Altitude Profile

Advertisement - Login to hide

LIRA

Details ICAO LIRA (CIA)
Name CIAMPINO
Region Italy
Timezone Europe/Rome (UTC+2.0)
Stats Elevation 427 ft / 130 m (AMSL)
Location 41.799228° 12.594917°
Runways 1
Magnetic Variation 3.104° E

METAR

LIRA 250750Z VRB03KT 9999 FEW015 22/18 Q1016

Decode

TAF

TAF LIRA 250500Z 2506/2606 VRB05KT CAVOK BECMG 2509/2511 25010KT BECMG 2516/2518 VRB05KT TEMPO 2602/2605 4000 BR

Decode

Departure Runways

ID Width Length Bearing (true) Bearing (mag) Surface Threshold Offset Overrun Length
15 154 ft / 47 m 7,246 ft / 2,209 m 152.79° 149.69° Asphalt 0 ft / 0 m 0 ft / 0 m
33 154 ft / 47 m 7,246 ft / 2,209 m 332.80° 329.70° Asphalt 0 ft / 0 m 0 ft / 0 m

LIRN

Details ICAO LIRN (NAP)
Name Naples Capodichino
Region Italy
Timezone Europe/Rome (UTC+2.0)
Stats Elevation 294 ft / 90 m (AMSL)
Location 40.886032° 14.290783°
Runways 1
Magnetic Variation 3.353° E

METAR

LIRN 250750Z 18004KT 100V240 8000 SCT020 BKN035 22/17 Q1016 NOSIG

Decode

TAF

TAF LIRN 250500Z 2506/2606 VRB04KT 9999 FEW030 BECMG 2508/2510 21010KT BECMG 2516/2518 VRB04KT TEMPO 2602/2605 4000 BR

Decode

Destination Runways

ID Width Length Bearing (true) Bearing (mag) Surface Threshold Offset Overrun Length
06 148 ft / 45 m 8,612 ft / 2,625 m 58.03° 54.68° Asphalt 1,309 ft / 399 m 0 ft / 0 m
24 148 ft / 45 m 8,612 ft / 2,625 m 238.05° 234.70° Asphalt 624 ft / 190 m 0 ft / 0 m

Approach Navaids

Runway Type Ident Frequency Range Bearing (true) Bearing (mag) Slope Elevation
06 Localiser NPC 110.15 MHz 18 nm / 33 km 52.74° 49.38° - 294 ft / 90 m (AMSL)
06 Glidescope NPC 110.15 MHz 10 nm / 19 km 58.04° 54.69° 3.50° 294 ft / 90 m (AMSL)
06 DME NPC 110.15 MHz 25 nm / 46 km - - - 294 ft / 90 m (AMSL)
24 Localiser INPL 109.50 MHz 18 nm / 33 km 238.03° 234.67° - 288 ft / 88 m (AMSL)
24 Glidescope INPL 109.50 MHz 10 nm / 19 km 238.04° 234.69° 3.33° 250 ft / 76 m (AMSL)
24 DME INPL 109.50 MHz 25 nm / 46 km - - - 250 ft / 76 m (AMSL)

Popular Alternatives